Arboles, CO

10:21 AM MST on December 18, 2014 (GMT -0700)
Crowbar Creek | Change Station
CLOSE
Current Station
Personal Weather Station
Location: Bayfield, CO
Elevation: 6979 ft
Nearby Weather Stations
Active Advisory: Special Statement Active Notice: Public Information Statement

Elev 6979 ft 37.21 °N, 107.54 °W | Updated 16 seconds ago

Mostly Cloudy
Mostly Cloudy
31.8 °F
Feels Like 32 °F
N
1.5
Wind Variable Wind from WSW
Gusts 2.3 mph

Today
High -- | Low -- °F
--% Chance of Precip.
Yesterday
High -- | Low -- °F
Precip. -- in
7:17 AM 4:55 PM
Waning Crescent, 13% visible
Pressure 30.21 in
Visibility 10.0 miles
Clouds Mostly Cloudy 1300 ft
Overcast 4400 ft
Windchill 32 °F
Dew Point 28 °F
Humidity 84%
Rainfall 0.02 in
Snow Depth Not available.
UV 1 out of 12
Pollen .40 out of 12
Air Quality Not available.
Flu Activity Not available.
METAR KDRO 181653Z AUTO 00000KT 10SM BKN013 OVC044 M01/M03 A3014 RMK AO2 SNB1556E11 SLP229 P0000 T10061028

More Conditions Fewer Conditions

Pressure 30.21 in
Visibility 10.0 miles
Clouds Mostly Cloudy 1300 ft
Overcast 4400 ft
Windchill 32 °F
Dew Point 28 °F
Humidity 84%
Rainfall 0.02 in
Snow Depth Not available.
UV 1 out of 12
Pollen .40 out of 12
Air Quality Not available.
Flu Activity Not available.
METAR KDRO 181653Z AUTO 00000KT 10SM BKN013 OVC044 M01/M03 A3014 RMK AO2 SNB1556E11 SLP229 P0000 T10061028

More Conditions Fewer Conditions

10-Day Weather Forecast

Almanac

Astronomy

Dec. 18, 2014 Rise Set
Actual Time
Civil Twilight
Nautical Twilight
Astronomical Twilight
Moon
Length of Visible Light
Length of Day
Tomorrow will be .
, % of the Moon is Illuminated

Today's Extremes

State Highs State Lows

Community

WunderPhotos

Upload Photos

1,778,964 photos uploaded!

WunderBlogs® & News

Nearby

Air Quality

  Air Quality AQ Index Pollutant
Not available.

Snow Depth

Station Depth Elevation

Earthquake Activity

City Distance Mag. Time & Date
Minimum magnitude displayed is 2.5.

Coastal Water Temperatures

Place Temperature

Nearby Weather Stations